sensor_id;sensor_type;location;lat;lon;timestamp;temperature;humidity
65374;SHT31;52070;53.760;9.678;2022-11-20T00:01:31;1.14;87.93
65374;SHT31;52070;53.760;9.678;2022-11-20T00:03:59;1.13;87.94
65374;SHT31;52070;53.760;9.678;2022-11-20T00:06:28;1.12;87.97
65374;SHT31;52070;53.760;9.678;2022-11-20T00:08:56;1.16;88.04
65374;SHT31;52070;53.760;9.678;2022-11-20T00:11:26;1.17;87.96
65374;SHT31;52070;53.760;9.678;2022-11-20T00:13:55;1.14;88.01
65374;SHT31;52070;53.760;9.678;2022-11-20T00:16:24;1.16;88.14
65374;SHT31;52070;53.760;9.678;2022-11-20T00:18:52;1.13;88.14
65374;SHT31;52070;53.760;9.678;2022-11-20T00:21:20;1.08;88.23
65374;SHT31;52070;53.760;9.678;2022-11-20T00:23:49;1.12;88.24
65374;SHT31;52070;53.760;9.678;2022-11-20T00:26:18;1.16;88.39
65374;SHT31;52070;53.760;9.678;2022-11-20T00:28:49;1.14;88.46
65374;SHT31;52070;53.760;9.678;2022-11-20T00:31:17;1.10;88.38
65374;SHT31;52070;53.760;9.678;2022-11-20T00:33:45;1.12;88.47
65374;SHT31;52070;53.760;9.678;2022-11-20T00:36:14;1.12;88.47
65374;SHT31;52070;53.760;9.678;2022-11-20T00:38:42;1.13;88.43
65374;SHT31;52070;53.760;9.678;2022-11-20T00:41:12;1.16;88.46
65374;SHT31;52070;53.760;9.678;2022-11-20T00:43:39;1.17;88.48
65374;SHT31;52070;53.760;9.678;2022-11-20T00:46:07;1.16;88.46
65374;SHT31;52070;53.760;9.678;2022-11-20T00:48:35;1.20;88.43
65374;SHT31;52070;53.760;9.678;2022-11-20T00:51:02;1.20;88.36
65374;SHT31;52070;53.760;9.678;2022-11-20T00:53:29;1.20;88.36
65374;SHT31;52070;53.760;9.678;2022-11-20T00:55:58;1.19;88.35
65374;SHT31;52070;53.760;9.678;2022-11-20T00:58:31;1.19;88.43
65374;SHT31;52070;53.760;9.678;2022-11-20T01:01:01;1.17;88.52
65374;SHT31;52070;53.760;9.678;2022-11-20T01:03:31;1.22;88.49
65374;SHT31;52070;53.760;9.678;2022-11-20T01:06:00;1.24;88.54
65374;SHT31;52070;53.760;9.678;2022-11-20T01:08:31;1.19;88.47
65374;SHT31;52070;53.760;9.678;2022-11-20T01:10:59;1.23;88.51
65374;SHT31;52070;53.760;9.678;2022-11-20T01:13:26;1.22;88.59
65374;SHT31;52070;53.760;9.678;2022-11-20T01:16:09;1.20;88.63
65374;SHT31;52070;53.760;9.678;2022-11-20T01:18:37;1.22;88.65
65374;SHT31;52070;53.760;9.678;2022-11-20T01:21:07;1.24;88.64
65374;SHT31;52070;53.760;9.678;2022-11-20T01:23:37;1.22;88.59
65374;SHT31;52070;53.760;9.678;2022-11-20T01:26:06;1.19;88.60
65374;SHT31;52070;53.760;9.678;2022-11-20T01:28:34;1.17;88.69
65374;SHT31;52070;53.760;9.678;2022-11-20T01:31:02;1.16;88.78
65374;SHT31;52070;53.760;9.678;2022-11-20T01:33:38;1.13;88.85
65374;SHT31;52070;53.760;9.678;2022-11-20T01:36:06;1.14;88.91
65374;SHT31;52070;53.760;9.678;2022-11-20T01:38:34;1.14;88.94
65374;SHT31;52070;53.760;9.678;2022-11-20T01:41:01;1.10;88.92
65374;SHT31;52070;53.760;9.678;2022-11-20T01:43:28;1.13;89.00
65374;SHT31;52070;53.760;9.678;2022-11-20T01:46:13;1.08;89.03
65374;SHT31;52070;53.760;9.678;2022-11-20T01:48:47;1.08;89.05
65374;SHT31;52070;53.760;9.678;2022-11-20T01:51:20;1.05;89.16
65374;SHT31;52070;53.760;9.678;2022-11-20T01:53:49;1.04;89.28
65374;SHT31;52070;53.760;9.678;2022-11-20T01:56:16;1.04;89.28
65374;SHT31;52070;53.760;9.678;2022-11-20T01:58:48;1.07;89.32
65374;SHT31;52070;53.760;9.678;2022-11-20T02:01:17;1.04;89.34
65374;SHT31;52070;53.760;9.678;2022-11-20T02:03:45;1.08;89.37
65374;SHT31;52070;53.760;9.678;2022-11-20T02:06:18;1.04;89.31
65374;SHT31;52070;53.760;9.678;2022-11-20T02:08:46;1.05;89.27
65374;SHT31;52070;53.760;9.678;2022-11-20T02:11:13;1.03;89.34
65374;SHT31;52070;53.760;9.678;2022-11-20T02:13:40;1.00;89.36
65374;SHT31;52070;53.760;9.678;2022-11-20T02:16:15;1.04;89.36
65374;SHT31;52070;53.760;9.678;2022-11-20T02:18:45;1.03;89.40
65374;SHT31;52070;53.760;9.678;2022-11-20T02:21:33;1.01;89.41
65374;SHT31;52070;53.760;9.678;2022-11-20T02:24:04;0.99;89.39
65374;SHT31;52070;53.760;9.678;2022-11-20T02:26:34;0.97;89.46
65374;SHT31;52070;53.760;9.678;2022-11-20T02:29:03;0.96;89.48
65374;SHT31;52070;53.760;9.678;2022-11-20T02:31:36;0.94;89.48
65374;SHT31;52070;53.760;9.678;2022-11-20T02:34:03;0.94;89.52
65374;SHT31;52070;53.760;9.678;2022-11-20T02:36:32;0.92;89.63
65374;SHT31;52070;53.760;9.678;2022-11-20T02:39:00;0.94;89.82
65374;SHT31;52070;53.760;9.678;2022-11-20T02:41:33;0.89;89.79
65374;SHT31;52070;53.760;9.678;2022-11-20T02:44:00;0.86;89.88
65374;SHT31;52070;53.760;9.678;2022-11-20T02:46:28;0.86;89.96
65374;SHT31;52070;53.760;9.678;2022-11-20T02:48:55;0.90;89.96
65374;SHT31;52070;53.760;9.678;2022-11-20T02:51:22;0.90;89.93
65374;SHT31;52070;53.760;9.678;2022-11-20T02:53:49;0.93;89.95
65374;SHT31;52070;53.760;9.678;2022-11-20T02:56:16;0.93;89.96
65374;SHT31;52070;53.760;9.678;2022-11-20T02:58:45;0.89;89.92
65374;SHT31;52070;53.760;9.678;2022-11-20T03:01:12;0.90;89.97
65374;SHT31;52070;53.760;9.678;2022-11-20T03:03:39;0.89;90.01
65374;SHT31;52070;53.760;9.678;2022-11-20T03:06:06;0.87;89.94
65374;SHT31;52070;53.760;9.678;2022-11-20T03:08:33;0.80;89.93
65374;SHT31;52070;53.760;9.678;2022-11-20T03:11:05;0.86;90.08
65374;SHT31;52070;53.760;9.678;2022-11-20T03:13:33;0.87;89.96
65374;SHT31;52070;53.760;9.678;2022-11-20T03:16:06;0.84;89.95
65374;SHT31;52070;53.760;9.678;2022-11-20T03:18:34;0.92;89.88
65374;SHT31;52070;53.760;9.678;2022-11-20T03:21:01;0.87;89.83
65374;SHT31;52070;53.760;9.678;2022-11-20T03:23:29;0.90;89.84
65374;SHT31;52070;53.760;9.678;2022-11-20T03:25:56;0.87;89.87
65374;SHT31;52070;53.760;9.678;2022-11-20T03:28:23;0.83;89.84
65374;SHT31;52070;53.760;9.678;2022-11-20T03:30:50;0.77;89.84
65374;SHT31;52070;53.760;9.678;2022-11-20T03:33:18;0.84;89.87
65374;SHT31;52070;53.760;9.678;2022-11-20T03:35:45;0.82;89.90
65374;SHT31;52070;53.760;9.678;2022-11-20T03:38:12;0.84;89.89
65374;SHT31;52070;53.760;9.678;2022-11-20T03:40:39;0.80;89.78
65374;SHT31;52070;53.760;9.678;2022-11-20T03:43:06;0.83;89.75
65374;SHT31;52070;53.760;9.678;2022-11-20T03:45:33;0.79;89.69
65374;SHT31;52070;53.760;9.678;2022-11-20T03:47:59;0.79;89.72
65374;SHT31;52070;53.760;9.678;2022-11-20T03:50:28;0.76;89.82
65374;SHT31;52070;53.760;9.678;2022-11-20T03:52:55;0.77;89.91
65374;SHT31;52070;53.760;9.678;2022-11-20T03:55:22;0.82;89.86
65374;SHT31;52070;53.760;9.678;2022-11-20T03:57:49;0.83;89.74
65374;SHT31;52070;53.760;9.678;2022-11-20T04:00:16;0.80;89.67
65374;SHT31;52070;53.760;9.678;2022-11-20T04:02:43;0.80;89.67
65374;SHT31;52070;53.760;9.678;2022-11-20T04:05:10;0.80;89.65
65374;SHT31;52070;53.760;9.678;2022-11-20T04:07:38;0.76;89.61
65374;SHT31;52070;53.760;9.678;2022-11-20T04:10:05;0.75;89.58
65374;SHT31;52070;53.760;9.678;2022-11-20T04:12:33;0.79;89.63
65374;SHT31;52070;53.760;9.678;2022-11-20T04:15:00;0.75;89.62
65374;SHT31;52070;53.760;9.678;2022-11-20T04:17:27;0.76;89.59
65374;SHT31;52070;53.760;9.678;2022-11-20T04:19:54;0.77;89.63
65374;SHT31;52070;53.760;9.678;2022-11-20T04:22:21;0.77;89.62
65374;SHT31;52070;53.760;9.678;2022-11-20T04:24:49;0.75;89.62
65374;SHT31;52070;53.760;9.678;2022-11-20T04:27:16;0.73;89.61
65374;SHT31;52070;53.760;9.678;2022-11-20T04:29:43;0.75;89.57
65374;SHT31;52070;53.760;9.678;2022-11-20T04:32:10;0.73;89.52
65374;SHT31;52070;53.760;9.678;2022-11-20T04:34:37;0.75;89.53
65374;SHT31;52070;53.760;9.678;2022-11-20T04:37:04;0.73;89.55
65374;SHT31;52070;53.760;9.678;2022-11-20T04:39:31;0.76;89.60
65374;SHT31;52070;53.760;9.678;2022-11-20T04:41:59;0.79;89.61
65374;SHT31;52070;53.760;9.678;2022-11-20T04:44:44;0.82;89.45
65374;SHT31;52070;53.760;9.678;2022-11-20T04:47:11;0.73;89.44
65374;SHT31;52070;53.760;9.678;2022-11-20T04:49:38;0.73;89.54
65374;SHT31;52070;53.760;9.678;2022-11-20T04:52:05;0.70;89.59
65374;SHT31;52070;53.760;9.678;2022-11-20T04:54:32;0.69;89.64
65374;SHT31;52070;53.760;9.678;2022-11-20T04:57:00;0.66;89.72
65374;SHT31;52070;53.760;9.678;2022-11-20T04:59:27;0.65;89.77
65374;SHT31;52070;53.760;9.678;2022-11-20T05:01:54;0.69;89.87
65374;SHT31;52070;53.760;9.678;2022-11-20T05:04:21;0.66;89.85
65374;SHT31;52070;53.760;9.678;2022-11-20T05:06:49;0.66;89.83
65374;SHT31;52070;53.760;9.678;2022-11-20T05:09:16;0.66;89.85
65374;SHT31;52070;53.760;9.678;2022-11-20T05:11:43;0.70;89.71
65374;SHT31;52070;53.760;9.678;2022-11-20T05:14:11;0.69;89.70
65374;SHT31;52070;53.760;9.678;2022-11-20T05:16:38;0.63;89.71
65374;SHT31;52070;53.760;9.678;2022-11-20T05:19:05;0.58;89.68
65374;SHT31;52070;53.760;9.678;2022-11-20T05:21:32;0.55;89.67
65374;SHT31;52070;53.760;9.678;2022-11-20T05:23:59;0.52;89.72
65374;SHT31;52070;53.760;9.678;2022-11-20T05:26:26;0.55;89.82
65374;SHT31;52070;53.760;9.678;2022-11-20T05:28:53;0.55;89.86
65374;SHT31;52070;53.760;9.678;2022-11-20T05:31:23;0.55;89.85
65374;SHT31;52070;53.760;9.678;2022-11-20T05:33:51;0.50;89.84
65374;SHT31;52070;53.760;9.678;2022-11-20T05:36:18;0.58;89.92
65374;SHT31;52070;53.760;9.678;2022-11-20T05:38:45;0.56;89.81
65374;SHT31;52070;53.760;9.678;2022-11-20T05:41:13;0.56;89.78
65374;SHT31;52070;53.760;9.678;2022-11-20T05:43:42;0.50;89.67
65374;SHT31;52070;53.760;9.678;2022-11-20T05:46:11;0.48;89.55
65374;SHT31;52070;53.760;9.678;2022-11-20T05:48:41;0.49;89.55
65374;SHT31;52070;53.760;9.678;2022-11-20T05:51:10;0.50;89.64
65374;SHT31;52070;53.760;9.678;2022-11-20T05:53:37;0.45;89.58
65374;SHT31;52070;53.760;9.678;2022-11-20T05:56:06;0.46;89.57
65374;SHT31;52070;53.760;9.678;2022-11-20T05:58:34;0.46;89.59
65374;SHT31;52070;53.760;9.678;2022-11-20T06:01:05;0.53;89.58
65374;SHT31;52070;53.760;9.678;2022-11-20T06:03:32;0.52;89.51
65374;SHT31;52070;53.760;9.678;2022-11-20T06:06:01;0.50;89.54
65374;SHT31;52070;53.760;9.678;2022-11-20T06:08:29;0.44;89.57
65374;SHT31;52070;53.760;9.678;2022-11-20T06:10:56;0.42;89.68
65374;SHT31;52070;53.760;9.678;2022-11-20T06:13:23;0.41;89.80
65374;SHT31;52070;53.760;9.678;2022-11-20T06:15:50;0.52;89.90
65374;SHT31;52070;53.760;9.678;2022-11-20T06:18:18;0.45;89.81
65374;SHT31;52070;53.760;9.678;2022-11-20T06:20:45;0.46;89.79
65374;SHT31;52070;53.760;9.678;2022-11-20T06:23:14;0.50;89.84
65374;SHT31;52070;53.760;9.678;2022-11-20T06:25:42;0.49;89.80
65374;SHT31;52070;53.760;9.678;2022-11-20T06:28:09;0.50;89.79
65374;SHT31;52070;53.760;9.678;2022-11-20T06:30:36;0.49;89.82
65374;SHT31;52070;53.760;9.678;2022-11-20T06:33:03;0.65;89.87
65374;SHT31;52070;53.760;9.678;2022-11-20T06:35:30;0.66;89.81
65374;SHT31;52070;53.760;9.678;2022-11-20T06:37:57;0.68;89.73
65374;SHT31;52070;53.760;9.678;2022-11-20T06:40:25;0.70;89.71
65374;SHT31;52070;53.760;9.678;2022-11-20T06:42:53;0.82;89.71
65374;SHT31;52070;53.760;9.678;2022-11-20T06:45:20;0.79;89.54
65374;SHT31;52070;53.760;9.678;2022-11-20T06:47:47;0.77;89.57
65374;SHT31;52070;53.760;9.678;2022-11-20T06:50:14;0.75;89.59
65374;SHT31;52070;53.760;9.678;2022-11-20T06:52:41;0.73;89.66
65374;SHT31;52070;53.760;9.678;2022-11-20T06:55:08;0.75;89.79
65374;SHT31;52070;53.760;9.678;2022-11-20T06:57:36;0.73;89.82
65374;SHT31;52070;53.760;9.678;2022-11-20T07:00:04;0.76;89.81
65374;SHT31;52070;53.760;9.678;2022-11-20T07:02:32;0.77;89.86
65374;SHT31;52070;53.760;9.678;2022-11-20T07:04:59;0.80;89.92
65374;SHT31;52070;53.760;9.678;2022-11-20T07:07:25;0.79;89.87
65374;SHT31;52070;53.760;9.678;2022-11-20T07:09:52;0.80;89.90
65374;SHT31;52070;53.760;9.678;2022-11-20T07:12:19;0.83;89.87
65374;SHT31;52070;53.760;9.678;2022-11-20T07:14:48;0.86;89.88
65374;SHT31;52070;53.760;9.678;2022-11-20T07:17:15;0.87;89.82
65374;SHT31;52070;53.760;9.678;2022-11-20T07:19:42;0.86;89.79
65374;SHT31;52070;53.760;9.678;2022-11-20T07:22:08;0.92;89.81
65374;SHT31;52070;53.760;9.678;2022-11-20T07:24:35;0.93;89.84
65374;SHT31;52070;53.760;9.678;2022-11-20T07:27:02;0.94;89.82
65374;SHT31;52070;53.760;9.678;2022-11-20T07:29:30;0.99;89.78
65374;SHT31;52070;53.760;9.678;2022-11-20T07:31:59;0.96;89.77
65374;SHT31;52070;53.760;9.678;2022-11-20T07:34:26;0.90;89.72
65374;SHT31;52070;53.760;9.678;2022-11-20T07:36:53;0.93;89.73
65374;SHT31;52070;53.760;9.678;2022-11-20T07:39:20;0.97;89.78
65374;SHT31;52070;53.760;9.678;2022-11-20T07:41:46;0.96;89.69
65374;SHT31;52070;53.760;9.678;2022-11-20T07:44:13;0.92;89.72
65374;SHT31;52070;53.760;9.678;2022-11-20T07:46:40;0.90;89.74
65374;SHT31;52070;53.760;9.678;2022-11-20T07:49:09;0.93;89.81
65374;SHT31;52070;53.760;9.678;2022-11-20T07:51:41;1.00;89.89
65374;SHT31;52070;53.760;9.678;2022-11-20T07:54:09;1.05;89.90
65374;SHT31;52070;53.760;9.678;2022-11-20T07:56:36;1.07;89.89
65374;SHT31;52070;53.760;9.678;2022-11-20T07:59:03;1.10;89.83
65374;SHT31;52070;53.760;9.678;2022-11-20T08:01:30;1.00;89.68
65374;SHT31;52070;53.760;9.678;2022-11-20T08:03:57;1.04;89.65
65374;SHT31;52070;53.760;9.678;2022-11-20T08:06:26;1.05;89.75
65374;SHT31;52070;53.760;9.678;2022-11-20T08:08:53;1.12;89.78
65374;SHT31;52070;53.760;9.678;2022-11-20T08:11:20;1.13;89.64
65374;SHT31;52070;53.760;9.678;2022-11-20T08:14:04;1.16;89.65
65374;SHT31;52070;53.760;9.678;2022-11-20T08:16:43;1.19;89.62
65374;SHT31;52070;53.760;9.678;2022-11-20T08:19:10;1.10;89.46
65374;SHT31;52070;53.760;9.678;2022-11-20T08:21:39;1.03;89.45
65374;SHT31;52070;53.760;9.678;2022-11-20T08:24:06;1.07;89.61
65374;SHT31;52070;53.760;9.678;2022-11-20T08:26:34;1.08;89.74
65374;SHT31;52070;53.760;9.678;2022-11-20T08:29:01;1.10;89.86
65374;SHT31;52070;53.760;9.678;2022-11-20T08:31:28;1.05;89.70
65374;SHT31;52070;53.760;9.678;2022-11-20T08:33:55;1.14;89.77
65374;SHT31;52070;53.760;9.678;2022-11-20T08:36:23;1.17;89.75
65374;SHT31;52070;53.760;9.678;2022-11-20T08:38:53;1.12;89.69
65374;SHT31;52070;53.760;9.678;2022-11-20T08:41:21;1.10;89.63
65374;SHT31;52070;53.760;9.678;2022-11-20T08:43:53;1.10;89.63
65374;SHT31;52070;53.760;9.678;2022-11-20T08:46:21;1.07;89.66
65374;SHT31;52070;53.760;9.678;2022-11-20T08:48:48;1.10;89.82
65374;SHT31;52070;53.760;9.678;2022-11-20T08:51:16;1.19;89.86
65374;SHT31;52070;53.760;9.678;2022-11-20T08:53:43;1.28;89.83
65374;SHT31;52070;53.760;9.678;2022-11-20T08:56:11;1.34;89.79
65374;SHT31;52070;53.760;9.678;2022-11-20T08:58:39;1.40;89.68
65374;SHT31;52070;53.760;9.678;2022-11-20T09:01:06;1.47;89.61
65374;SHT31;52070;53.760;9.678;2022-11-20T09:03:33;1.48;89.49
65374;SHT31;52070;53.760;9.678;2022-11-20T09:06:01;1.51;89.40
65374;SHT31;52070;53.760;9.678;2022-11-20T09:08:29;1.54;89.26
65374;SHT31;52070;53.760;9.678;2022-11-20T09:10:57;1.54;88.97
65374;SHT31;52070;53.760;9.678;2022-11-20T09:13:27;1.59;88.69
65374;SHT31;52070;53.760;9.678;2022-11-20T09:15:56;1.72;88.81
65374;SHT31;52070;53.760;9.678;2022-11-20T09:18:23;1.79;88.33
65374;SHT31;52070;53.760;9.678;2022-11-20T09:20:50;1.98;88.01
65374;SHT31;52070;53.760;9.678;2022-11-20T09:23:18;1.99;87.46
65374;SHT31;52070;53.760;9.678;2022-11-20T09:25:44;1.96;87.38
65374;SHT31;52070;53.760;9.678;2022-11-20T09:28:11;1.92;87.22
65374;SHT31;52070;53.760;9.678;2022-11-20T09:30:43;1.94;87.12
65374;SHT31;52070;53.760;9.678;2022-11-20T09:33:10;2.16;86.97
65374;SHT31;52070;53.760;9.678;2022-11-20T09:35:37;2.20;86.57
65374;SHT31;52070;53.760;9.678;2022-11-20T09:38:05;2.26;86.61
65374;SHT31;52070;53.760;9.678;2022-11-20T09:40:35;2.22;86.36
65374;SHT31;52070;53.760;9.678;2022-11-20T09:43:10;2.23;86.45
65374;SHT31;52070;53.760;9.678;2022-11-20T09:45:50;2.16;86.52
65374;SHT31;52070;53.760;9.678;2022-11-20T09:48:29;2.26;87.01
65374;SHT31;52070;53.760;9.678;2022-11-20T09:51:05;2.30;86.82
65374;SHT31;52070;53.760;9.678;2022-11-20T09:53:42;2.23;86.47
65374;SHT31;52070;53.760;9.678;2022-11-20T09:56:14;2.22;86.33
65374;SHT31;52070;53.760;9.678;2022-11-20T09:58:43;2.12;86.43
65374;SHT31;52070;53.760;9.678;2022-11-20T10:01:15;2.12;86.69
65374;SHT31;52070;53.760;9.678;2022-11-20T10:03:50;2.13;86.67
65374;SHT31;52070;53.760;9.678;2022-11-20T10:06:22;2.03;86.68
65374;SHT31;52070;53.760;9.678;2022-11-20T10:08:57;2.06;86.95
65374;SHT31;52070;53.760;9.678;2022-11-20T10:11:34;2.06;87.15
65374;SHT31;52070;53.760;9.678;2022-11-20T10:14:16;2.10;86.99
65374;SHT31;52070;53.760;9.678;2022-11-20T10:16:53;2.01;86.78
65374;SHT31;52070;53.760;9.678;2022-11-20T10:19:36;2.09;86.97
65374;SHT31;52070;53.760;9.678;2022-11-20T10:22:14;2.19;87.13
65374;SHT31;52070;53.760;9.678;2022-11-20T10:24:53;2.25;86.98
65374;SHT31;52070;53.760;9.678;2022-11-20T10:27:40;2.22;86.34
65374;SHT31;52070;53.760;9.678;2022-11-20T10:30:14;2.08;86.02
65374;SHT31;52070;53.760;9.678;2022-11-20T10:32:46;2.26;86.24
65374;SHT31;52070;53.760;9.678;2022-11-20T10:35:20;2.33;85.89
65374;SHT31;52070;53.760;9.678;2022-11-20T10:37:51;2.18;85.13
65374;SHT31;52070;53.760;9.678;2022-11-20T10:40:23;2.22;85.29
65374;SHT31;52070;53.760;9.678;2022-11-20T10:42:54;2.42;85.31
65374;SHT31;52070;53.760;9.678;2022-11-20T10:45:34;2.47;85.22
65374;SHT31;52070;53.760;9.678;2022-11-20T10:48:14;2.60;85.65
65374;SHT31;52070;53.760;9.678;2022-11-20T10:50:49;2.58;84.94
65374;SHT31;52070;53.760;9.678;2022-11-20T10:53:40;2.39;84.53
65374;SHT31;52070;53.760;9.678;2022-11-20T10:56:17;2.16;84.61
65374;SHT31;52070;53.760;9.678;2022-11-20T10:58:52;2.13;85.24
65374;SHT31;52070;53.760;9.678;2022-11-20T11:01:21;2.19;85.39
65374;SHT31;52070;53.760;9.678;2022-11-20T11:03:51;2.32;85.27
65374;SHT31;52070;53.760;9.678;2022-11-20T11:06:23;2.46;85.51
65374;SHT31;52070;53.760;9.678;2022-11-20T11:08:53;2.61;85.08
65374;SHT31;52070;53.760;9.678;2022-11-20T11:11:23;2.77;84.62
65374;SHT31;52070;53.760;9.678;2022-11-20T11:13:51;3.05;84.78
65374;SHT31;52070;53.760;9.678;2022-11-20T11:16:22;3.14;84.55
65374;SHT31;52070;53.760;9.678;2022-11-20T11:18:51;3.07;83.44
65374;SHT31;52070;53.760;9.678;2022-11-20T11:21:23;3.07;83.32
65374;SHT31;52070;53.760;9.678;2022-11-20T11:23:58;2.93;83.58
65374;SHT31;52070;53.760;9.678;2022-11-20T11:26:26;2.88;83.41
65374;SHT31;52070;53.760;9.678;2022-11-20T11:28:55;2.85;83.59
65374;SHT31;52070;53.760;9.678;2022-11-20T11:31:23;2.81;83.76
65374;SHT31;52070;53.760;9.678;2022-11-20T11:33:52;2.93;84.10
65374;SHT31;52070;53.760;9.678;2022-11-20T11:36:22;2.95;83.81
65374;SHT31;52070;53.760;9.678;2022-11-20T11:38:52;2.94;83.94
65374;SHT31;52070;53.760;9.678;2022-11-20T11:41:22;2.93;83.80
65374;SHT31;52070;53.760;9.678;2022-11-20T11:43:52;2.93;83.57
65374;SHT31;52070;53.760;9.678;2022-11-20T11:46:38;2.98;83.50
65374;SHT31;52070;53.760;9.678;2022-11-20T11:49:16;3.09;83.52
65374;SHT31;52070;53.760;9.678;2022-11-20T11:51:58;3.42;83.15
65374;SHT31;52070;53.760;9.678;2022-11-20T11:54:29;3.59;82.28
65374;SHT31;52070;53.760;9.678;2022-11-20T11:56:58;3.66;81.61
65374;SHT31;52070;53.760;9.678;2022-11-20T11:59:43;3.97;79.58
65374;SHT31;52070;53.760;9.678;2022-11-20T12:02:24;4.71;77.90
65374;SHT31;52070;53.760;9.678;2022-11-20T12:04:58;4.96;77.55
65374;SHT31;52070;53.760;9.678;2022-11-20T12:07:37;4.64;76.82
65374;SHT31;52070;53.760;9.678;2022-11-20T12:10:14;4.40;77.84
65374;SHT31;52070;53.760;9.678;2022-11-20T12:12:44;4.09;77.51
65374;SHT31;52070;53.760;9.678;2022-11-20T12:15:16;3.99;79.04
65374;SHT31;52070;53.760;9.678;2022-11-20T12:17:45;3.94;79.09
65374;SHT31;52070;53.760;9.678;2022-11-20T12:20:14;3.79;79.71
65374;SHT31;52070;53.760;9.678;2022-11-20T12:22:48;3.69;80.05
65374;SHT31;52070;53.760;9.678;2022-11-20T12:25:22;3.66;80.74
65374;SHT31;52070;53.760;9.678;2022-11-20T12:28:07;3.66;81.29
65374;SHT31;52070;53.760;9.678;2022-11-20T12:30:41;3.73;81.28
65374;SHT31;52070;53.760;9.678;2022-11-20T12:33:41;3.90;79.86
65374;SHT31;52070;53.760;9.678;2022-11-20T12:36:20;3.87;79.38
65374;SHT31;52070;53.760;9.678;2022-11-20T12:39:05;3.76;79.22
65374;SHT31;52070;53.760;9.678;2022-11-20T12:42:11;3.75;78.72
65374;SHT31;52070;53.760;9.678;2022-11-20T12:45:18;3.51;79.83
65374;SHT31;52070;53.760;9.678;2022-11-20T12:47:55;3.45;78.77
65374;SHT31;52070;53.760;9.678;2022-11-20T12:50:35;3.31;79.39
65374;SHT31;52070;53.760;9.678;2022-11-20T12:53:09;3.22;80.23
65374;SHT31;52070;53.760;9.678;2022-11-20T12:55:47;3.21;80.74
65374;SHT31;52070;53.760;9.678;2022-11-20T12:58:22;3.89;81.16
65374;SHT31;52070;53.760;9.678;2022-11-20T13:00:57;4.31;79.94
65374;SHT31;52070;53.760;9.678;2022-11-20T13:03:36;4.82;75.96
65374;SHT31;52070;53.760;9.678;2022-11-20T13:06:11;4.81;76.33
65374;SHT31;52070;53.760;9.678;2022-11-20T13:08:41;5.02;75.44
65374;SHT31;52070;53.760;9.678;2022-11-20T13:11:15;5.32;74.10
65374;SHT31;52070;53.760;9.678;2022-11-20T13:13:54;5.60;71.62
65374;SHT31;52070;53.760;9.678;2022-11-20T13:16:29;5.44;71.98
65374;SHT31;52070;53.760;9.678;2022-11-20T13:19:01;5.35;72.80
65374;SHT31;52070;53.760;9.678;2022-11-20T13:21:35;5.19;71.22
65374;SHT31;52070;53.760;9.678;2022-11-20T13:24:05;4.78;73.23
65374;SHT31;52070;53.760;9.678;2022-11-20T13:26:33;4.55;73.61
65374;SHT31;52070;53.760;9.678;2022-11-20T13:29:05;4.30;74.52
65374;SHT31;52070;53.760;9.678;2022-11-20T13:31:35;4.21;75.41
65374;SHT31;52070;53.760;9.678;2022-11-20T13:34:05;4.10;75.52
65374;SHT31;52070;53.760;9.678;2022-11-20T13:36:33;4.04;76.21
65374;SHT31;52070;53.760;9.678;2022-11-20T13:39:02;3.99;76.57
65374;SHT31;52070;53.760;9.678;2022-11-20T13:41:33;3.96;77.19
65374;SHT31;52070;53.760;9.678;2022-11-20T13:44:13;3.94;77.36
65374;SHT31;52070;53.760;9.678;2022-11-20T13:46:42;4.07;77.55
65374;SHT31;52070;53.760;9.678;2022-11-20T13:49:16;4.10;77.44
65374;SHT31;52070;53.760;9.678;2022-11-20T13:51:46;4.00;77.32
65374;SHT31;52070;53.760;9.678;2022-11-20T13:54:43;3.87;77.51
65374;SHT31;52070;53.760;9.678;2022-11-20T13:57:35;3.80;76.34
65374;SHT31;52070;53.760;9.678;2022-11-20T14:00:11;3.65;76.82
65374;SHT31;52070;53.760;9.678;2022-11-20T14:02:39;3.59;77.64
65374;SHT31;52070;53.760;9.678;2022-11-20T14:05:17;3.52;77.91
65374;SHT31;52070;53.760;9.678;2022-11-20T14:07:47;3.40;77.83
65374;SHT31;52070;53.760;9.678;2022-11-20T14:10:21;3.31;78.40
65374;SHT31;52070;53.760;9.678;2022-11-20T14:12:50;3.25;77.96
65374;SHT31;52070;53.760;9.678;2022-11-20T14:15:28;3.19;78.47
65374;SHT31;52070;53.760;9.678;2022-11-20T14:17:56;3.15;78.17
65374;SHT31;52070;53.760;9.678;2022-11-20T14:20:26;3.07;78.15
65374;SHT31;52070;53.760;9.678;2022-11-20T14:22:54;3.01;78.57
65374;SHT31;52070;53.760;9.678;2022-11-20T14:25:22;2.97;78.82
65374;SHT31;52070;53.760;9.678;2022-11-20T14:27:55;2.97;79.17
65374;SHT31;52070;53.760;9.678;2022-11-20T14:30:24;2.94;79.65
65374;SHT31;52070;53.760;9.678;2022-11-20T14:32:54;2.97;79.67
65374;SHT31;52070;53.760;9.678;2022-11-20T14:35:25;2.95;79.87
65374;SHT31;52070;53.760;9.678;2022-11-20T14:37:52;2.90;79.98
65374;SHT31;52070;53.760;9.678;2022-11-20T14:40:26;2.85;79.93
65374;SHT31;52070;53.760;9.678;2022-11-20T14:42:55;2.80;79.67
65374;SHT31;52070;53.760;9.678;2022-11-20T14:45:22;2.73;79.77
65374;SHT31;52070;53.760;9.678;2022-11-20T14:47:50;2.63;80.13
65374;SHT31;52070;53.760;9.678;2022-11-20T14:50:20;2.61;80.56
65374;SHT31;52070;53.760;9.678;2022-11-20T14:52:52;2.64;80.88
65374;SHT31;52070;53.760;9.678;2022-11-20T14:55:30;2.60;81.23
65374;SHT31;52070;53.760;9.678;2022-11-20T14:58:00;2.58;81.31
65374;SHT31;52070;53.760;9.678;2022-11-20T15:00:29;2.58;81.44
65374;SHT31;52070;53.760;9.678;2022-11-20T15:02:56;2.54;81.63
65374;SHT31;52070;53.760;9.678;2022-11-20T15:05:25;2.53;81.74
65374;SHT31;52070;53.760;9.678;2022-11-20T15:08:05;2.52;81.85
65374;SHT31;52070;53.760;9.678;2022-11-20T15:10:33;2.47;81.92
65374;SHT31;52070;53.760;9.678;2022-11-20T15:13:04;2.49;82.07
65374;SHT31;52070;53.760;9.678;2022-11-20T15:15:36;2.50;82.12
65374;SHT31;52070;53.760;9.678;2022-11-20T15:18:10;2.52;82.23
65374;SHT31;52070;53.760;9.678;2022-11-20T15:20:38;2.49;82.06
65374;SHT31;52070;53.760;9.678;2022-11-20T15:23:09;2.50;81.99
65374;SHT31;52070;53.760;9.678;2022-11-20T15:25:38;2.47;82.14
65374;SHT31;52070;53.760;9.678;2022-11-20T15:28:13;2.44;81.96
65374;SHT31;52070;53.760;9.678;2022-11-20T15:30:42;2.43;82.40
65374;SHT31;52070;53.760;9.678;2022-11-20T15:33:10;2.42;82.67
65374;SHT31;52070;53.760;9.678;2022-11-20T15:35:36;2.40;82.57
65374;SHT31;52070;53.760;9.678;2022-11-20T15:38:03;2.40;82.56
65374;SHT31;52070;53.760;9.678;2022-11-20T15:40:30;2.37;82.63
65374;SHT31;52070;53.760;9.678;2022-11-20T15:42:57;2.33;82.47
65374;SHT31;52070;53.760;9.678;2022-11-20T15:45:37;2.28;82.57
65374;SHT31;52070;53.760;9.678;2022-11-20T15:48:09;2.30;82.69
65374;SHT31;52070;53.760;9.678;2022-11-20T15:50:38;2.29;82.70
65374;SHT31;52070;53.760;9.678;2022-11-20T15:53:09;2.26;82.87
65374;SHT31;52070;53.760;9.678;2022-11-20T15:55:36;2.26;83.00
65374;SHT31;52070;53.760;9.678;2022-11-20T15:58:03;2.20;83.52
65374;SHT31;52070;53.760;9.678;2022-11-20T16:00:30;2.18;83.42
65374;SHT31;52070;53.760;9.678;2022-11-20T16:02:59;2.13;83.46
65374;SHT31;52070;53.760;9.678;2022-11-20T16:05:28;2.03;83.76